Time;durP1;ratioP1;P1;durP2;ratioP2;P2;SDS_P1;SDS_P2;PMS_P1;PMS_P2;Temp;Humidity;BMP_temperature;BMP_pressure;BME280_temperature;BME280_humidity;BME280_pressure;Samples;Min_cycle;Max_cycle;Signal;HPM_P1;HPM_P2
2023/07/01 00:00:12;;;;;;;7.53;6.72;;;22.20;53.20;;;;;;6113544;23;114201;-79
2023/07/01 00:02:48;;;;;;;8.48;7.05;;;22.20;54.20;;;;;;6111822;22;114857;-78
2023/07/01 00:05:15;;;;;;;5.50;4.38;;;22.20;54.80;;;;;;6112257;22;116404;-79
2023/07/01 00:07:42;;;;;;;6.18;4.85;;;22.30;53.10;;;;;;6136936;22;114300;-79
2023/07/01 00:10:09;;;;;;;5.72;4.63;;;22.30;52.90;;;;;;6113841;23;114143;-79
2023/07/01 00:12:37;;;;;;;8.63;6.85;;;22.40;52.70;;;;;;6112477;23;116167;-78
2023/07/01 00:15:04;;;;;;;5.78;4.65;;;22.50;53.90;;;;;;6110954;23;117491;-78
2023/07/01 00:17:32;;;;;;;6.45;5.55;;;22.60;52.80;;;;;;6112291;23;114109;-78
2023/07/01 00:19:59;;;;;;;9.35;8.25;;;22.60;53.30;;;;;;6112483;23;114320;-78
2023/07/01 00:22:26;;;;;;;9.30;7.53;;;22.60;53.70;;;;;;6111105;22;114558;-78
2023/07/01 00:24:53;;;;;;;7.88;7.07;;;22.60;54.10;;;;;;6112607;23;115069;-79
2023/07/01 00:27:23;;;;;;;6.38;5.78;;;22.50;53.80;;;;;;6112667;23;114223;-79
2023/07/01 00:29:51;;;;;;;8.20;6.82;;;22.50;53.80;;;;;;6113463;23;114372;-78
2023/07/01 00:32:18;;;;;;;8.05;6.30;;;22.50;54.10;;;;;;6111818;23;115007;-79
2023/07/01 00:34:45;;;;;;;5.95;4.53;;;22.40;54.30;;;;;;6110999;23;115235;-79
2023/07/01 00:37:12;;;;;;;9.38;7.30;;;22.40;53.30;;;;;;6136971;22;114501;-79
2023/07/01 00:39:39;;;;;;;7.30;6.60;;;22.40;54.30;;;;;;6136810;22;114854;-79
2023/07/01 00:42:06;;;;;;;8.95;6.43;;;22.40;54.30;;;;;;6112146;23;114966;-79
2023/07/01 00:44:35;;;;;;;6.68;5.28;;;22.40;54.20;;;;;;6112441;23;114568;-79
2023/07/01 00:47:02;;;;;;;6.55;4.97;;;22.40;53.50;;;;;;6113235;23;114140;-79
2023/07/01 00:49:29;;;;;;;5.65;5.05;;;22.40;53.40;;;;;;6111758;23;114177;-77
2023/07/01 00:51:57;;;;;;;7.88;6.22;;;22.40;53.40;;;;;;6085405;23;116309;-77
2023/07/01 00:54:24;;;;;;;7.10;5.90;;;22.40;54.20;;;;;;6112033;23;114947;-78
2023/07/01 00:56:52;;;;;;;6.53;5.38;;;22.40;54.30;;;;;;6111683;23;114226;-77
2023/07/01 00:59:19;;;;;;;10.65;8.98;;;22.30;53.80;;;;;;6113764;22;114403;-78
2023/07/01 01:01:47;;;;;;;8.50;6.35;;;22.30;55.30;;;;;;6112056;23;116203;-78
2023/07/01 01:04:16;;;;;;;5.35;4.80;;;22.30;54.80;;;;;;6111504;23;115292;-78
2023/07/01 01:06:46;;;;;;;8.63;6.82;;;22.30;53.70;;;;;;6114396;23;114275;-78
2023/07/01 01:09:26;;;;;;;7.97;7.18;;;22.40;54.30;;;;;;6064338;23;114107;-78
2023/07/01 01:11:53;;;;;;;6.80;5.55;;;22.30;54.90;;;;;;6113029;23;115439;-78
2023/07/01 01:14:22;;;;;;;5.90;5.30;;;22.30;54.40;;;;;;6087211;23;114641;-79
2023/07/01 01:16:50;;;;;;;6.93;6.22;;;22.30;54.20;;;;;;6112888;22;114355;-77
2023/07/01 01:19:38;;;;;;;7.93;6.53;;;22.10;54.70;;;;;;6112672;23;114329;-78
2023/07/01 01:22:16;;;;;;;6.70;5.32;;;22.20;54.60;;;;;;6111373;23;114791;-79
2023/07/01 01:24:44;;;;;;;9.05;6.70;;;22.20;54.20;;;;;;6112967;23;114997;-78
2023/07/01 01:27:15;;;;;;;7.18;5.35;;;22.20;54.90;;;;;;6112686;22;114384;-79
2023/07/01 01:29:42;;;;;;;6.07;5.40;;;22.20;54.20;;;;;;6087998;23;114745;-79
2023/07/01 01:32:10;;;;;;;9.63;8.73;;;22.30;54.00;;;;;;6085543;23;118469;-78
2023/07/01 01:34:37;;;;;;;6.10;5.53;;;22.30;55.70;;;;;;6087444;23;115050;-79
2023/07/01 01:37:06;;;;;;;5.63;4.95;;;22.30;54.50;;;;;;6137495;22;114359;-79
2023/07/01 01:39:36;;;;;;;10.13;9.10;;;22.30;54.30;;;;;;6112598;23;114251;-79
2023/07/01 01:42:13;;;;;;;9.98;7.15;;;22.30;56.00;;;;;;6112317;23;115084;-78
2023/07/01 01:44:51;;;;;;;7.22;5.05;;;22.30;54.80;;;;;;6111367;23;114588;-79
2023/07/01 01:47:23;;;;;;;9.27;6.70;;;22.20;54.60;;;;;;6112804;23;114339;-78
2023/07/01 01:49:55;;;;;;;7.22;6.40;;;22.20;55.10;;;;;;6113190;22;114370;-79
2023/07/01 01:52:23;;;;;;;7.70;6.60;;;22.20;55.20;;;;;;6111521;23;114823;-79
2023/07/01 01:54:52;;;;;;;6.40;5.68;;;22.30;54.80;;;;;;6111571;23;114625;-78
2023/07/01 01:57:19;;;;;;;7.13;5.80;;;22.30;55.00;;;;;;6112664;23;114396;-78
2023/07/01 01:59:46;;;;;;;9.13;8.00;;;22.30;54.50;;;;;;6088969;23;114298;-76
2023/07/01 02:02:13;;;;;;;7.43;5.85;;;22.30;55.50;;;;;;6087219;23;114913;-78
2023/07/01 02:04:40;;;;;;;8.88;7.97;;;22.30;54.40;;;;;;6112832;23;114604;-78
2023/07/01 02:07:08;;;;;;;7.60;6.78;;;22.30;55.00;;;;;;6087415;23;114092;-80
2023/07/01 02:09:35;;;;;;;6.05;5.45;;;22.30;54.70;;;;;;6088063;23;114435;-78
2023/07/01 02:12:04;;;;;;;6.85;5.55;;;22.30;54.30;;;;;;6112840;23;115480;-79
2023/07/01 02:14:31;;;;;;;11.75;10.55;;;22.30;54.40;;;;;;6111494;23;114615;-78
2023/07/01 02:16:58;;;;;;;10.70;9.60;;;22.30;56.00;;;;;;6112843;22;114141;-79
2023/07/01 02:19:27;;;;;;;7.68;6.75;;;22.30;55.70;;;;;;6114003;22;114055;-79
2023/07/01 02:21:54;;;;;;;8.00;7.20;;;22.30;55.10;;;;;;6112433;23;114992;-78
2023/07/01 02:24:22;;;;;;;6.72;6.03;;;22.20;55.10;;;;;;6113318;23;114907;-80
2023/07/01 02:26:50;;;;;;;8.80;7.85;;;22.10;54.80;;;;;;6112481;23;114095;-79
2023/07/01 02:29:17;;;;;;;9.82;8.80;;;22.10;55.40;;;;;;6113923;23;114146;-80
2023/07/01 02:31:44;;;;;;;8.45;7.20;;;22.10;56.00;;;;;;6112151;23;114724;-78
2023/07/01 02:34:11;;;;;;;7.55;6.82;;;22.20;55.50;;;;;;6111040;22;114637;-78
2023/07/01 02:36:40;;;;;;;7.80;7.00;;;22.20;55.20;;;;;;6113890;23;114065;-79
2023/07/01 02:39:07;;;;;;;7.78;6.97;;;22.20;55.20;;;;;;6114079;22;114056;-79
2023/07/01 02:41:34;;;;;;;10.52;9.10;;;22.30;55.30;;;;;;6111311;23;114969;-79
2023/07/01 02:44:01;;;;;;;8.52;7.68;;;22.30;55.80;;;;;;6111342;23;116209;-79
2023/07/01 02:46:31;;;;;;;9.40;7.07;;;22.30;55.30;;;;;;6113857;23;114005;-79
2023/07/01 02:48:59;;;;;;;6.95;6.10;;;22.30;55.30;;;;;;6114289;23;114125;-79
2023/07/01 02:51:26;;;;;;;9.20;8.30;;;22.30;55.00;;;;;;6110812;23;117666;-79
2023/07/01 02:53:54;;;;;;;10.50;8.95;;;22.20;55.60;;;;;;6136289;22;115787;-79
2023/07/01 02:56:21;;;;;;;7.15;6.45;;;22.20;56.00;;;;;;6111709;23;115026;-78
2023/07/01 02:58:48;;;;;;;7.95;6.28;;;22.20;55.30;;;;;;6112362;23;114370;-80
2023/07/01 03:01:15;;;;;;;8.40;7.43;;;22.20;55.20;;;;;;6136239;22;114881;-78
2023/07/01 03:03:43;;;;;;;8.85;6.63;;;22.20;55.70;;;;;;6111123;23;117520;-78
2023/07/01 03:06:10;;;;;;;9.45;6.93;;;22.20;55.20;;;;;;6113913;22;114070;-78
2023/07/01 03:08:37;;;;;;;9.75;8.75;;;22.20;55.40;;;;;;6113713;23;114027;-79
2023/07/01 03:11:04;;;;;;;8.02;6.00;;;22.20;56.10;;;;;;6136137;22;114879;-78
2023/07/01 03:13:31;;;;;;;10.27;9.13;;;22.20;55.30;;;;;;6112895;23;114546;-78
2023/07/01 03:16:00;;;;;;;10.82;9.70;;;22.20;56.40;;;;;;6113624;23;114032;-79
2023/07/01 03:18:28;;;;;;;11.75;10.63;;;22.10;56.90;;;;;;6137588;22;114146;-79
2023/07/01 03:20:57;;;;;;;8.88;8.02;;;21.90;57.60;;;;;;6111928;23;114888;-78
2023/07/01 03:23:25;;;;;;;15.32;13.70;;;21.90;57.20;;;;;;6086087;23;118246;-79
2023/07/01 03:25:52;;;;;;;13.63;12.30;;;21.90;58.40;;;;;;6113948;23;114131;-78
2023/07/01 03:28:20;;;;;;;9.00;6.88;;;21.80;58.30;;;;;;6137179;22;114494;-79
2023/07/01 03:30:48;;;;;;;8.20;7.40;;;21.80;57.20;;;;;;6136599;22;115603;-79
2023/07/01 03:33:17;;;;;;;9.75;8.40;;;21.80;57.20;;;;;;6062112;23;117330;-79
2023/07/01 03:35:44;;;;;;;11.75;10.48;;;21.80;57.40;;;;;;6113858;22;114306;-78
2023/07/01 03:38:13;;;;;;;8.38;7.57;;;21.90;58.10;;;;;;6114120;22;114130;-78
2023/07/01 03:40:40;;;;;;;18.17;16.15;;;21.80;56.70;;;;;;6112689;23;115659;-78
2023/07/01 03:43:07;;;;;;;14.30;13.00;;;21.90;58.70;;;;;;6111312;23;114727;-78
2023/07/01 03:45:34;;;;;;;16.35;13.85;;;21.80;58.40;;;;;;6113071;23;114044;-78
2023/07/01 03:48:02;;;;;;;17.20;15.63;;;21.70;59.00;;;;;;6113489;23;114296;-79
2023/07/01 03:50:30;;;;;;;20.50;18.52;;;21.70;59.60;;;;;;6112665;23;115330;-79
2023/07/01 03:52:57;;;;;;;11.35;10.27;;;21.70;60.00;;;;;;6112399;23;114675;-78
2023/07/01 03:55:25;;;;;;;14.52;13.07;;;21.60;58.70;;;;;;6113443;23;114253;-78
2023/07/01 03:57:52;;;;;;;21.58;19.60;;;21.60;59.50;;;;;;6087865;23;114098;-78
2023/07/01 04:00:19;;;;;;;9.13;8.23;;;21.60;60.40;;;;;;6112395;23;115435;-78
2023/07/01 04:02:47;;;;;;;11.85;10.73;;;21.60;58.50;;;;;;6112797;22;115864;-78
2023/07/01 04:05:15;;;;;;;9.23;7.20;;;21.60;58.70;;;;;;6113402;22;114189;-79
2023/07/01 04:07:43;;;;;;;13.93;12.68;;;21.80;57.30;;;;;;6111130;23;114305;-79
2023/07/01 04:10:10;;;;;;;9.32;8.32;;;21.80;58.30;;;;;;6110197;23;114883;-78
2023/07/01 04:12:38;;;;;;;11.52;10.43;;;21.80;57.20;;;;;;6112275;22;114706;-78
2023/07/01 04:15:09;;;;;;;8.50;7.50;;;21.90;57.60;;;;;;6111963;23;113938;-77
2023/07/01 04:17:41;;;;;;;9.60;8.70;;;21.90;57.10;;;;;;6112034;23;114597;-79
2023/07/01 04:20:09;;;;;;;8.70;7.68;;;22.00;57.10;;;;;;6112095;22;114799;-79
2023/07/01 04:22:37;;;;;;;14.30;13.00;;;22.00;56.90;;;;;;6110539;23;115624;-79
2023/07/01 04:25:04;;;;;;;12.95;11.85;;;22.10;58.30;;;;;;6113658;23;114443;-79
2023/07/01 04:27:31;;;;;;;9.20;7.65;;;22.10;57.70;;;;;;6113861;23;114127;-78
2023/07/01 04:29:58;;;;;;;13.40;12.10;;;22.10;56.80;;;;;;6111023;23;114954;-78
2023/07/01 04:32:25;;;;;;;10.15;9.15;;;22.20;57.80;;;;;;6110696;23;115050;-79
2023/07/01 04:34:54;;;;;;;9.30;8.40;;;22.20;57.20;;;;;;6113635;23;114144;-79
2023/07/01 04:37:21;;;;;;;15.23;13.63;;;22.30;56.60;;;;;;6114755;23;114062;-78
2023/07/01 04:39:48;;;;;;;14.90;13.60;;;22.20;58.30;;;;;;6112374;23;114848;-79
2023/07/01 04:42:15;;;;;;;8.50;7.70;;;22.30;58.40;;;;;;6114390;23;114544;-79
2023/07/01 04:44:43;;;;;;;11.93;10.88;;;22.30;56.60;;;;;;6115540;23;114231;-78
2023/07/01 04:47:11;;;;;;;14.55;13.27;;;22.30;57.40;;;;;;6089566;23;114158;-78
2023/07/01 04:49:38;;;;;;;13.55;12.35;;;22.30;58.30;;;;;;6113759;23;114957;-79
2023/07/01 04:52:05;;;;;;;8.52;7.63;;;22.30;58.10;;;;;;6114087;23;115959;-79
2023/07/01 04:54:32;;;;;;;7.85;6.90;;;22.30;56.60;;;;;;6138198;22;115097;-78
2023/07/01 04:56:59;;;;;;;10.40;9.20;;;22.20;56.30;;;;;;6113521;23;114368;-78
2023/07/01 04:59:27;;;;;;;11.38;10.35;;;22.20;57.10;;;;;;6112952;23;115318;-77
2023/07/01 05:01:54;;;;;;;8.63;7.72;;;22.20;57.40;;;;;;6136776;22;114669;-77
2023/07/01 05:04:21;;;;;;;8.35;7.38;;;22.20;56.80;;;;;;6114829;23;114253;-77
2023/07/01 05:06:51;;;;;;;8.25;7.45;;;22.20;56.70;;;;;;6088830;23;114194;-78
2023/07/01 05:09:18;;;;;;;11.15;10.13;;;22.20;56.60;;;;;;6113189;23;114987;-78
2023/07/01 05:11:45;;;;;;;9.20;8.27;;;22.20;57.10;;;;;;6111898;23;114604;-78
2023/07/01 05:14:12;;;;;;;7.55;6.82;;;22.10;56.80;;;;;;6088953;23;114245;-78
2023/07/01 05:16:39;;;;;;;7.80;7.07;;;22.10;56.90;;;;;;6115541;23;114062;-78
2023/07/01 05:19:07;;;;;;;7.85;6.68;;;22.00;56.90;;;;;;6113801;23;114945;-78
2023/07/01 05:21:35;;;;;;;8.45;7.65;;;22.00;56.80;;;;;;6087775;23;114613;-78
2023/07/01 05:24:04;;;;;;;7.85;7.15;;;22.10;57.20;;;;;;6114610;23;114100;-78
2023/07/01 05:26:31;;;;;;;7.50;6.68;;;22.10;57.10;;;;;;6113634;23;114084;-77
2023/07/01 05:28:59;;;;;;;7.47;6.20;;;22.10;56.70;;;;;;6113897;23;115169;-79
2023/07/01 05:31:26;;;;;;;7.75;6.53;;;22.00;56.90;;;;;;6113950;23;114594;-77
2023/07/01 05:33:53;;;;;;;8.15;7.35;;;22.10;56.90;;;;;;6114377;23;114075;-79
2023/07/01 05:36:20;;;;;;;6.78;5.72;;;22.10;57.00;;;;;;6114872;23;114092;-80
2023/07/01 05:38:47;;;;;;;7.32;6.05;;;22.00;56.40;;;;;;6113582;23;114735;-79
2023/07/01 05:41:16;;;;;;;7.35;6.60;;;21.90;56.90;;;;;;6114041;23;114255;-78
2023/07/01 05:43:43;;;;;;;6.57;5.80;;;22.00;57.00;;;;;;6114820;23;114036;-78
2023/07/01 05:46:10;;;;;;;6.97;6.38;;;22.00;56.70;;;;;;6114135;23;114177;-78
2023/07/01 05:48:37;;;;;;;8.68;7.88;;;22.00;56.80;;;;;;6112535;23;114907;-79
2023/07/01 05:51:04;;;;;;;6.88;6.18;;;22.00;57.50;;;;;;6113333;23;114525;-78
2023/07/01 05:53:31;;;;;;;7.13;6.35;;;21.90;56.90;;;;;;6114244;23;113986;-79
2023/07/01 05:55:58;;;;;;;7.50;6.80;;;22.00;56.90;;;;;;6113158;23;114174;-78
2023/07/01 05:58:25;;;;;;;6.97;6.35;;;22.00;57.00;;;;;;6113032;23;116156;-79
2023/07/01 06:00:53;;;;;;;10.25;9.30;;;22.10;56.80;;;;;;6111775;23;114979;-78
2023/07/01 06:03:20;;;;;;;8.10;7.30;;;22.00;57.30;;;;;;6114149;23;114116;-78
2023/07/01 06:05:47;;;;;;;7.45;6.32;;;22.10;56.80;;;;;;6112952;23;114286;-77
2023/07/01 06:08:14;;;;;;;7.78;6.93;;;22.10;56.60;;;;;;6112915;23;115483;-79
2023/07/01 06:10:41;;;;;;;11.32;10.27;;;22.10;56.50;;;;;;6136867;22;115118;-77
2023/07/01 06:13:08;;;;;;;10.77;9.77;;;22.10;56.90;;;;;;6113706;23;114253;-78
2023/07/01 06:15:35;;;;;;;12.45;11.35;;;22.10;57.20;;;;;;6114231;23;114174;-79
2023/07/01 06:18:02;;;;;;;9.82;8.45;;;22.10;57.50;;;;;;6115689;23;114929;-78
2023/07/01 06:20:29;;;;;;;15.20;13.70;;;22.20;57.00;;;;;;6087372;23;116447;-78
2023/07/01 06:22:56;;;;;;;13.90;12.60;;;22.20;58.40;;;;;;6113658;23;114328;-79
2023/07/01 06:25:25;;;;;;;9.77;8.88;;;22.10;58.40;;;;;;6113960;23;114066;-79
2023/07/01 06:27:53;;;;;;;7.65;6.90;;;22.00;57.60;;;;;;6111265;23;114784;-79
2023/07/01 06:30:20;;;;;;;11.30;10.10;;;22.00;57.00;;;;;;6086909;23;117525;-78
2023/07/01 06:32:47;;;;;;;12.98;11.85;;;22.10;57.70;;;;;;6112057;23;114327;-78
2023/07/01 06:35:14;;;;;;;7.30;6.60;;;22.20;58.10;;;;;;6113689;23;114178;-79
2023/07/01 06:37:41;;;;;;;9.88;8.93;;;22.20;56.90;;;;;;6110650;23;115149;-77
2023/07/01 06:40:08;;;;;;;10.30;9.23;;;22.30;57.60;;;;;;6111227;23;114609;-79
2023/07/01 06:42:36;;;;;;;7.20;6.10;;;22.30;57.50;;;;;;6087799;23;114294;-79
2023/07/01 06:45:04;;;;;;;8.65;7.78;;;22.30;56.30;;;;;;6113908;23;114419;-79
2023/07/01 06:47:31;;;;;;;10.23;9.23;;;22.30;56.90;;;;;;6111280;23;115550;-77
2023/07/01 06:49:59;;;;;;;8.18;7.45;;;22.40;56.70;;;;;;6112697;23;114869;-78
2023/07/01 06:52:26;;;;;;;10.93;10.00;;;22.40;56.50;;;;;;6137265;22;114413;-80
2023/07/01 06:54:53;;;;;;;7.75;6.40;;;22.50;57.10;;;;;;6114399;23;114121;-79
2023/07/01 06:57:21;;;;;;;11.95;10.85;;;22.40;56.20;;;;;;6135704;22;114855;-77
2023/07/01 06:59:50;;;;;;;9.45;8.55;;;22.50;57.40;;;;;;6112632;22;114910;-79
2023/07/01 07:02:17;;;;;;;14.65;13.27;;;22.50;56.50;;;;;;6113113;23;114229;-78
2023/07/01 07:04:47;;;;;;;15.82;14.32;;;22.40;57.20;;;;;;6112876;22;114343;-78
2023/07/01 07:07:18;;;;;;;6.88;6.18;;;22.40;58.00;;;;;;6111072;23;114824;-77
2023/07/01 07:09:45;;;;;;;13.43;12.15;;;22.40;56.00;;;;;;6111037;23;115738;-78
2023/07/01 07:12:12;;;;;;;8.05;5.93;;;22.50;57.50;;;;;;6113629;23;114034;-78
2023/07/01 07:14:40;;;;;;;8.90;8.10;;;22.50;55.90;;;;;;6112444;23;114166;-79
2023/07/01 07:17:07;;;;;;;19.48;17.63;;;22.50;56.40;;;;;;6136112;22;117394;-78
2023/07/01 07:19:34;;;;;;;10.15;9.18;;;22.50;58.40;;;;;;6112861;23;114822;-78
2023/07/01 07:22:01;;;;;;;8.18;7.38;;;22.40;56.80;;;;;;6111740;23;114195;-77
2023/07/01 07:24:28;;;;;;;15.50;14.13;;;22.40;56.20;;;;;;6113652;23;114121;-78
2023/07/01 07:26:57;;;;;;;12.43;11.27;;;22.50;57.60;;;;;;6112360;23;116185;-79
2023/07/01 07:29:25;;;;;;;15.73;14.23;;;22.50;57.40;;;;;;6110848;23;114529;-79
2023/07/01 07:31:52;;;;;;;10.52;9.55;;;22.60;57.30;;;;;;6111934;23;114261;-78
2023/07/01 07:34:20;;;;;;;13.13;11.93;;;22.50;56.90;;;;;;6112982;23;114122;-79
2023/07/01 07:36:47;;;;;;;10.32;9.40;;;22.50;57.50;;;;;;6110301;23;115747;-79
2023/07/01 07:39:14;;;;;;;11.52;10.43;;;22.40;57.10;;;;;;6112280;23;115097;-79
2023/07/01 07:41:41;;;;;;;26.05;23.67;;;22.50;57.00;;;;;;6113657;23;114286;-78
2023/07/01 07:44:08;;;;;;;28.40;25.90;;;22.60;58.80;;;;;;6112489;23;114329;-79
2023/07/01 07:46:35;;;;;;;24.92;22.60;;;22.60;58.10;;;;;;6112319;23;114882;-77
2023/07/01 07:49:03;;;;;;;12.85;11.50;;;22.50;57.90;;;;;;6110899;23;114472;-78
2023/07/01 07:51:30;;;;;;;10.23;8.90;;;22.50;56.60;;;;;;6112795;23;114387;-79
2023/07/01 07:53:57;;;;;;;20.75;14.38;;;22.60;56.00;;;;;;6113486;23;114177;-79
2023/07/01 07:56:24;;;;;;;30.40;27.20;;;22.70;56.30;;;;;;6112065;23;114925;-79
2023/07/01 07:58:52;;;;;;;28.20;25.50;;;22.80;57.80;;;;;;6112301;22;115751;-78
2023/07/01 08:01:19;;;;;;;12.07;10.88;;;22.80;57.60;;;;;;6113297;23;114202;-77
2023/07/01 08:03:46;;;;;;;24.30;21.85;;;22.70;56.10;;;;;;6113347;23;114106;-77
2023/07/01 08:06:13;;;;;;;19.13;17.33;;;22.80;57.80;;;;;;6112153;23;115408;-79
2023/07/01 08:08:40;;;;;;;21.90;19.80;;;22.80;57.20;;;;;;6110897;23;115870;-78
2023/07/01 08:11:08;;;;;;;11.70;10.60;;;22.70;58.10;;;;;;6113145;23;113991;-79
2023/07/01 08:13:35;;;;;;;14.68;13.18;;;22.70;56.50;;;;;;6113332;23;114474;-79
2023/07/01 08:16:03;;;;;;;19.25;17.40;;;22.70;56.40;;;;;;6110152;23;114917;-79
2023/07/01 08:18:31;;;;;;;18.58;16.85;;;22.70;57.00;;;;;;6112393;23;115083;-79
2023/07/01 08:20:59;;;;;;;21.02;19.13;;;22.80;57.30;;;;;;6113440;22;114160;-79
2023/07/01 08:23:26;;;;;;;12.05;10.88;;;22.80;57.40;;;;;;6113163;23;114356;-79
2023/07/01 08:25:54;;;;;;;15.52;13.88;;;22.80;56.20;;;;;;6111980;23;115075;-79
2023/07/01 08:28:22;;;;;;;14.65;13.00;;;22.70;56.90;;;;;;6111986;23;114676;-79
2023/07/01 08:30:49;;;;;;;18.88;17.08;;;22.50;57.20;;;;;;6113038;22;114216;-78
2023/07/01 08:33:18;;;;;;;16.58;14.95;;;22.50;57.50;;;;;;6111654;23;114107;-78
2023/07/01 08:35:46;;;;;;;18.55;16.67;;;22.60;57.40;;;;;;6135113;22;116094;-77
2023/07/01 08:38:14;;;;;;;22.95;20.65;;;22.70;57.40;;;;;;6110925;22;115148;-77
2023/07/01 08:40:41;;;;;;;13.00;11.75;;;22.80;58.10;;;;;;6112374;23;114230;-79
2023/07/01 08:43:10;;;;;;;15.60;14.15;;;22.80;56.50;;;;;;6111440;23;114139;-78
2023/07/01 08:45:38;;;;;;;20.15;18.20;;;22.80;56.20;;;;;;6109899;23;118271;-78
2023/07/01 08:48:05;;;;;;;17.70;16.08;;;22.90;57.10;;;;;;6135278;22;114580;-78
2023/07/01 08:51:06;;;;;;;22.05;19.98;;;22.90;56.70;;;;;;6111502;23;114350;-78
2023/07/01 08:53:33;;;;;;;21.02;19.10;;;23.20;56.60;;;;;;6109547;23;114516;-77
2023/07/01 08:56:00;;;;;;;23.75;21.60;;;23.20;56.60;;;;;;6111614;23;115518;-77
2023/07/01 08:58:29;;;;;;;17.35;15.60;;;23.30;56.90;;;;;;6112258;23;114747;-77
2023/07/01 09:00:56;;;;;;;14.52;12.82;;;23.30;56.20;;;;;;6112770;23;114188;-77
2023/07/01 09:03:26;;;;;;;23.60;21.30;;;23.30;55.40;;;;;;6111296;23;114309;-79
2023/07/01 09:05:53;;;;;;;18.33;16.52;;;23.30;56.70;;;;;;6111087;23;115471;-77
2023/07/01 09:08:20;;;;;;;18.63;16.83;;;23.30;56.40;;;;;;6110003;23;114610;-78
2023/07/01 09:10:47;;;;;;;13.95;12.55;;;23.20;56.40;;;;;;6112524;23;114249;-78
2023/07/01 09:13:14;;;;;;;15.82;14.43;;;23.30;55.50;;;;;;6112734;23;114070;-78
2023/07/01 09:15:46;;;;;;;17.23;15.57;;;23.20;56.00;;;;;;6111788;23;115110;-80
2023/07/01 09:18:28;;;;;;;18.08;16.35;;;23.20;56.80;;;;;;6134863;22;114777;-77
2023/07/01 09:20:57;;;;;;;19.25;17.48;;;23.20;56.90;;;;;;6087639;23;114476;-79
2023/07/01 09:23:32;;;;;;;16.92;15.32;;;23.10;57.20;;;;;;6114406;22;114085;-79
2023/07/01 09:26:11;;;;;;;14.73;13.38;;;23.00;56.40;;;;;;6111507;23;115403;-78
2023/07/01 09:28:38;;;;;;;18.13;16.35;;;23.00;56.40;;;;;;6113240;23;114717;-78
2023/07/01 09:31:07;;;;;;;14.60;13.23;;;23.00;57.50;;;;;;6113530;23;114026;-79
2023/07/01 09:33:37;;;;;;;18.35;16.38;;;23.00;56.40;;;;;;6113608;22;114240;-78
2023/07/01 09:36:05;;;;;;;17.13;15.55;;;23.00;57.30;;;;;;6136141;22;114892;-79
2023/07/01 09:38:50;;;;;;;13.90;12.60;;;23.00;56.70;;;;;;6086913;23;117559;-78
2023/07/01 09:41:23;;;;;;;15.93;14.48;;;23.10;56.50;;;;;;6113146;23;114171;-79
2023/07/01 09:43:59;;;;;;;18.80;17.07;;;23.20;56.80;;;;;;6137961;22;114124;-77
2023/07/01 09:46:42;;;;;;;16.58;14.98;;;23.30;57.40;;;;;;6111482;23;115359;-79
2023/07/01 09:49:09;;;;;;;15.70;14.25;;;23.40;56.00;;;;;;6112050;23;114624;-78
2023/07/01 09:51:50;;;;;;;17.80;16.10;;;23.50;55.90;;;;;;6112554;23;114179;-79
2023/07/01 09:54:24;;;;;;;14.70;13.30;;;23.60;56.10;;;;;;6112745;23;114424;-78
2023/07/01 09:56:53;;;;;;;17.00;15.50;;;23.60;54.90;;;;;;6110930;23;114803;-79
2023/07/01 09:59:21;;;;;;;14.18;12.82;;;23.70;54.90;;;;;;6111344;23;115654;-79
2023/07/01 10:01:54;;;;;;;12.93;11.57;;;23.80;54.20;;;;;;6112678;23;114237;-78
2023/07/01 10:04:25;;;;;;;13.77;12.37;;;23.80;53.80;;;;;;6114087;23;114212;-79
2023/07/01 10:06:54;;;;;;;17.15;15.45;;;23.90;54.00;;;;;;6111465;23;114868;-79
2023/07/01 10:09:23;;;;;;;17.95;16.23;;;24.00;54.30;;;;;;6111477;23;115176;-79
2023/07/01 10:11:54;;;;;;;17.80;16.08;;;24.20;54.20;;;;;;6114035;23;114081;-79
2023/07/01 10:14:22;;;;;;;17.00;15.50;;;24.40;54.80;;;;;;6088284;23;114351;-78
2023/07/01 10:16:49;;;;;;;17.65;15.85;;;24.40;53.90;;;;;;6111128;23;116966;-79
2023/07/01 10:19:30;;;;;;;17.42;15.52;;;24.60;53.80;;;;;;6111229;23;115113;-78
2023/07/01 10:22:29;;;;;;;16.38;14.98;;;24.70;53.80;;;;;;6112465;23;114488;-79
2023/07/01 10:25:05;;;;;;;17.05;15.55;;;24.70;53.20;;;;;;6113743;22;114403;-78
2023/07/01 10:27:59;;;;;;;16.85;15.18;;;24.60;53.60;;;;;;6112810;23;114731;-79
2023/07/01 10:30:27;;;;;;;16.48;14.98;;;24.70;53.00;;;;;;6106318;23;114491;-78
2023/07/01 10:32:54;;;;;;;13.07;11.88;;;24.60;52.50;;;;;;6113091;23;114087;-79
2023/07/01 10:35:22;;;;;;;15.75;14.38;;;24.60;52.10;;;;;;6113740;23;114278;-78
2023/07/01 10:38:20;;;;;;;13.52;12.32;;;24.60;52.70;;;;;;6110580;23;116560;-81
2023/07/01 10:40:55;;;;;;;16.27;14.88;;;24.70;52.20;;;;;;6136661;22;114658;-81
2023/07/01 10:43:36;;;;;;;16.10;14.60;;;24.80;52.70;;;;;;6112133;23;114091;-78
2023/07/01 10:46:25;;;;;;;14.18;12.75;;;24.90;52.60;;;;;;6113597;22;114319;-80
2023/07/01 10:49:11;;;;;;;15.52;14.13;;;24.90;51.80;;;;;;6111814;23;115010;-78
2023/07/01 10:51:45;;;;;;;14.75;13.25;;;25.00;52.40;;;;;;6111193;23;114555;-80
2023/07/01 10:54:12;;;;;;;14.73;13.43;;;25.00;51.30;;;;;;6111950;23;114400;-78
2023/07/01 10:56:42;;;;;;;16.58;15.05;;;25.00;52.40;;;;;;6113867;23;114281;-78
2023/07/01 10:59:29;;;;;;;16.27;14.77;;;25.10;52.10;;;;;;6112643;23;115078;-83
2023/07/01 11:01:57;;;;;;;14.80;13.43;;;25.20;51.90;;;;;;6111191;23;114588;-79
2023/07/01 11:04:24;;;;;;;13.43;12.13;;;25.20;51.50;;;;;;6112195;23;114450;-79
2023/07/01 11:06:53;;;;;;;14.55;13.15;;;25.20;50.40;;;;;;6112772;23;114007;-78
2023/07/01 11:09:28;;;;;;;15.50;14.10;;;25.30;51.10;;;;;;6112480;23;116286;-78
2023/07/01 11:11:56;;;;;;;15.38;14.00;;;25.20;51.20;;;;;;6112397;23;114635;-77
2023/07/01 11:14:30;;;;;;;15.18;13.77;;;25.10;51.30;;;;;;6112978;23;114032;-79
2023/07/01 11:17:17;;;;;;;14.05;12.60;;;25.10;51.40;;;;;;6113746;23;114100;-79
2023/07/01 11:19:45;;;;;;;15.23;13.82;;;25.10;50.70;;;;;;6112569;23;114862;-80
2023/07/01 11:22:13;;;;;;;17.10;15.50;;;25.10;50.70;;;;;;6112042;23;115830;-78
2023/07/01 11:24:40;;;;;;;16.95;15.35;;;25.00;51.30;;;;;;6112117;23;114261;-79
2023/07/01 11:27:08;;;;;;;16.70;15.13;;;25.00;51.70;;;;;;6113521;23;114433;-78
2023/07/01 11:29:36;;;;;;;16.08;14.57;;;24.90;51.80;;;;;;6112276;23;115984;-78
2023/07/01 11:32:07;;;;;;;15.60;14.13;;;24.90;52.50;;;;;;6112020;22;114588;-78
2023/07/01 11:34:35;;;;;;;16.60;15.10;;;25.00;52.10;;;;;;6087186;23;114372;-79
2023/07/01 11:37:02;;;;;;;16.55;15.05;;;25.00;52.20;;;;;;6112244;23;114276;-79
2023/07/01 11:39:29;;;;;;;16.83;15.23;;;25.10;51.80;;;;;;6111779;22;114856;-77
2023/07/01 11:42:06;;;;;;;17.38;15.77;;;25.20;51.30;;;;;;6113480;23;113977;-79
2023/07/01 11:44:34;;;;;;;14.75;13.35;;;25.30;51.20;;;;;;6111828;23;114142;-78
2023/07/01 11:47:01;;;;;;;19.27;14.52;;;25.40;50.20;;;;;;6111986;23;114361;-79
2023/07/01 11:49:30;;;;;;;16.80;15.20;;;25.40;50.40;;;;;;6110833;23;114816;-78
2023/07/01 11:51:58;;;;;;;17.27;15.57;;;25.50;50.50;;;;;;6112259;23;114587;-78
2023/07/01 11:54:44;;;;;;;16.35;14.75;;;25.50;50.10;;;;;;6111952;23;114317;-78
2023/07/01 11:57:12;;;;;;;15.52;14.02;;;25.60;49.70;;;;;;6113721;23;114226;-79
2023/07/01 11:59:53;;;;;;;16.83;15.18;;;25.40;49.10;;;;;;6112126;23;114971;-78
2023/07/01 12:02:27;;;;;;;16.88;15.27;;;25.40;49.20;;;;;;6110998;23;114970;-78
2023/07/01 12:04:54;;;;;;;16.35;14.43;;;25.50;48.90;;;;;;6111188;23;114336;-78
2023/07/01 12:07:22;;;;;;;13.43;12.13;;;25.50;49.00;;;;;;6113340;22;114304;-78
2023/07/01 12:09:50;;;;;;;17.52;15.80;;;25.40;48.50;;;;;;6135219;22;114956;-78
2023/07/01 12:12:34;;;;;;;17.45;15.65;;;25.50;49.30;;;;;;6111960;23;114716;-77
2023/07/01 12:15:07;;;;;;;;;;;25.50;48.90;;;;;;6113728;23;114420;-78
2023/07/01 12:17:35;;;;;;;16.98;15.38;;;25.30;49.40;;;;;;6113507;23;114193;-79
2023/07/01 12:20:05;;;;;;;17.48;15.82;;;25.30;49.10;;;;;;6111938;22;116631;-80
2023/07/01 12:22:33;;;;;;;18.40;16.33;;;25.20;49.60;;;;;;6110707;23;114738;-77
2023/07/01 12:25:00;;;;;;;18.52;16.83;;;25.20;50.10;;;;;;6113118;23;114229;-78
2023/07/01 12:27:31;;;;;;;17.83;16.02;;;25.20;50.30;;;;;;6087062;23;114203;-78
2023/07/01 12:29:58;;;;;;;18.40;16.55;;;25.20;50.60;;;;;;6111444;23;115507;-79
2023/07/01 12:32:25;;;;;;;18.25;16.35;;;25.30;49.80;;;;;;6111593;23;116033;-79
2023/07/01 12:34:55;;;;;;;18.20;16.40;;;25.30;49.90;;;;;;6111736;23;114284;-78